sensor_id;sensor_type;location;lat;lon;timestamp;pressure;altitude;pressure_sealevel;temperature;humidity
60465;BME280;46314;52.392;9.758;2023-03-05T00:00:38;101142.28;;;4.63;76.10
60465;BME280;46314;52.392;9.758;2023-03-05T00:03:04;101139.59;;;4.85;75.34
60465;BME280;46314;52.392;9.758;2023-03-05T00:05:31;101133.75;;;4.82;74.52
60465;BME280;46314;52.392;9.758;2023-03-05T00:07:57;101125.06;;;4.68;76.06
60465;BME280;46314;52.392;9.758;2023-03-05T00:10:24;101135.63;;;4.59;76.25
60465;BME280;46314;52.392;9.758;2023-03-05T00:12:52;101127.34;;;4.93;75.16
60465;BME280;46314;52.392;9.758;2023-03-05T00:15:19;101125.00;;;5.02;73.95
60465;BME280;46314;52.392;9.758;2023-03-05T00:17:45;101127.09;;;4.95;73.58
60465;BME280;46314;52.392;9.758;2023-03-05T00:20:12;101120.25;;;4.97;73.45
60465;BME280;46314;52.392;9.758;2023-03-05T00:22:38;101120.97;;;4.87;73.60
60465;BME280;46314;52.392;9.758;2023-03-05T00:25:06;101117.03;;;4.83;74.79
60465;BME280;46314;52.392;9.758;2023-03-05T00:27:32;101101.41;;;5.06;73.53
60465;BME280;46314;52.392;9.758;2023-03-05T00:30:00;101104.38;;;5.21;72.53
60465;BME280;46314;52.392;9.758;2023-03-05T00:32:26;101097.47;;;4.80;73.77
60465;BME280;46314;52.392;9.758;2023-03-05T00:34:53;101094.19;;;5.00;72.96
60465;BME280;46314;52.392;9.758;2023-03-05T00:37:19;101094.22;;;4.83;73.75
60465;BME280;46314;52.392;9.758;2023-03-05T00:39:46;101092.50;;;4.60;74.31
60465;BME280;46314;52.392;9.758;2023-03-05T00:42:12;101089.28;;;4.85;73.92
60465;BME280;46314;52.392;9.758;2023-03-05T00:44:39;101092.09;;;4.68;74.83
60465;BME280;46314;52.392;9.758;2023-03-05T00:47:06;101090.56;;;4.60;75.54
60465;BME280;46314;52.392;9.758;2023-03-05T00:49:33;101086.19;;;4.59;75.14
60465;BME280;46314;52.392;9.758;2023-03-05T00:51:59;101083.94;;;4.56;75.97
60465;BME280;46314;52.392;9.758;2023-03-05T00:54:26;101083.69;;;4.41;76.02
60465;BME280;46314;52.392;9.758;2023-03-05T00:56:52;101076.50;;;4.73;75.33
60465;BME280;46314;52.392;9.758;2023-03-05T00:59:18;101065.59;;;4.79;74.41
60465;BME280;46314;52.392;9.758;2023-03-05T01:01:45;101054.84;;;4.60;75.88
60465;BME280;46314;52.392;9.758;2023-03-05T01:04:12;101061.00;;;4.84;74.54
60465;BME280;46314;52.392;9.758;2023-03-05T01:06:39;101053.25;;;4.64;75.65
60465;BME280;46314;52.392;9.758;2023-03-05T01:09:05;101052.59;;;4.57;75.65
60465;BME280;46314;52.392;9.758;2023-03-05T01:11:32;101047.13;;;4.57;75.94
60465;BME280;46314;52.392;9.758;2023-03-05T01:13:58;101041.13;;;4.60;76.42
60465;BME280;46314;52.392;9.758;2023-03-05T01:16:25;101041.13;;;4.60;76.44
60465;BME280;46314;52.392;9.758;2023-03-05T01:18:51;101042.03;;;4.66;75.21
60465;BME280;46314;52.392;9.758;2023-03-05T01:21:19;101033.34;;;4.74;75.09
60465;BME280;46314;52.392;9.758;2023-03-05T01:23:45;101032.28;;;4.75;75.29
60465;BME280;46314;52.392;9.758;2023-03-05T01:26:12;101030.91;;;4.39;75.47
60465;BME280;46314;52.392;9.758;2023-03-05T01:28:38;101031.03;;;4.66;76.10
60465;BME280;46314;52.392;9.758;2023-03-05T01:31:07;101021.78;;;4.16;77.44
60465;BME280;46314;52.392;9.758;2023-03-05T01:33:33;101019.38;;;4.76;76.16
60465;BME280;46314;52.392;9.758;2023-03-05T01:36:00;101016.41;;;4.60;75.89
60465;BME280;46314;52.392;9.758;2023-03-05T01:38:27;101013.41;;;4.62;75.76
60465;BME280;46314;52.392;9.758;2023-03-05T01:40:54;101006.78;;;4.80;75.23
60465;BME280;46314;52.392;9.758;2023-03-05T01:43:23;100998.91;;;4.66;75.28
60465;BME280;46314;52.392;9.758;2023-03-05T01:46:17;101004.09;;;4.63;75.80
60465;BME280;46314;52.392;9.758;2023-03-05T01:48:49;101003.03;;;4.47;75.87
60465;BME280;46314;52.392;9.758;2023-03-05T01:51:17;101007.59;;;4.58;75.58
60465;BME280;46314;52.392;9.758;2023-03-05T01:53:46;100995.25;;;4.61;75.59
60465;BME280;46314;52.392;9.758;2023-03-05T01:56:12;100996.28;;;4.54;76.01
60465;BME280;46314;52.392;9.758;2023-03-05T01:58:40;100990.16;;;4.69;75.09
60465;BME280;46314;52.392;9.758;2023-03-05T02:01:06;100989.97;;;4.54;75.43
60465;BME280;46314;52.392;9.758;2023-03-05T02:03:33;100988.28;;;4.53;75.72
60465;BME280;46314;52.392;9.758;2023-03-05T02:06:00;100990.47;;;4.34;77.01
60465;BME280;46314;52.392;9.758;2023-03-05T02:08:26;100990.16;;;4.30;77.21
60465;BME280;46314;52.392;9.758;2023-03-05T02:10:55;100986.69;;;4.57;76.18
60465;BME280;46314;52.392;9.758;2023-03-05T02:13:23;100978.75;;;4.61;75.17
60465;BME280;46314;52.392;9.758;2023-03-05T02:15:52;100985.47;;;4.48;76.16
60465;BME280;46314;52.392;9.758;2023-03-05T02:18:21;100972.34;;;4.33;76.55
60465;BME280;46314;52.392;9.758;2023-03-05T02:20:50;100977.84;;;4.33;77.59
60465;BME280;46314;52.392;9.758;2023-03-05T02:23:20;100977.50;;;4.29;77.27
60465;BME280;46314;52.392;9.758;2023-03-05T02:25:46;100972.91;;;4.35;76.84
60465;BME280;46314;52.392;9.758;2023-03-05T02:28:15;100963.69;;;4.63;76.27
60465;BME280;46314;52.392;9.758;2023-03-05T02:30:43;100962.94;;;4.29;77.43
60465;BME280;46314;52.392;9.758;2023-03-05T02:33:10;100958.88;;;4.31;76.88
60465;BME280;46314;52.392;9.758;2023-03-05T02:35:38;100952.91;;;4.17;78.30
60465;BME280;46314;52.392;9.758;2023-03-05T02:38:05;100954.09;;;4.44;77.70
60465;BME280;46314;52.392;9.758;2023-03-05T02:40:32;100957.03;;;4.37;77.00
60465;BME280;46314;52.392;9.758;2023-03-05T02:42:59;100940.88;;;4.41;77.63
60465;BME280;46314;52.392;9.758;2023-03-05T02:45:25;100943.66;;;4.63;76.39
60465;BME280;46314;52.392;9.758;2023-03-05T02:47:52;100945.47;;;4.57;76.58
60465;BME280;46314;52.392;9.758;2023-03-05T02:50:18;100936.72;;;4.38;77.29
60465;BME280;46314;52.392;9.758;2023-03-05T02:52:45;100931.34;;;4.26;77.98
60465;BME280;46314;52.392;9.758;2023-03-05T02:55:11;100937.06;;;4.42;78.84
60465;BME280;46314;52.392;9.758;2023-03-05T02:57:39;100932.66;;;4.63;77.37
60465;BME280;46314;52.392;9.758;2023-03-05T03:00:07;100924.72;;;4.44;77.57
60465;BME280;46314;52.392;9.758;2023-03-05T03:02:34;100933.84;;;4.50;78.81
60465;BME280;46314;52.392;9.758;2023-03-05T03:05:00;100935.59;;;4.56;78.09
60465;BME280;46314;52.392;9.758;2023-03-05T03:07:27;100925.41;;;4.57;77.92
60465;BME280;46314;52.392;9.758;2023-03-05T03:09:54;100923.81;;;4.39;78.12
60465;BME280;46314;52.392;9.758;2023-03-05T03:12:20;100925.09;;;4.53;78.38
60465;BME280;46314;52.392;9.758;2023-03-05T03:14:48;100918.09;;;4.23;80.09
60465;BME280;46314;52.392;9.758;2023-03-05T03:17:16;100923.06;;;4.65;78.69
60465;BME280;46314;52.392;9.758;2023-03-05T03:19:43;100919.09;;;4.56;78.67
60465;BME280;46314;52.392;9.758;2023-03-05T03:22:11;100912.38;;;4.25;79.64
60465;BME280;46314;52.392;9.758;2023-03-05T03:24:41;100904.78;;;4.15;81.66
60465;BME280;46314;52.392;9.758;2023-03-05T03:27:08;100911.72;;;4.40;80.65
60465;BME280;46314;52.392;9.758;2023-03-05T03:29:34;100901.91;;;4.44;80.41
60465;BME280;46314;52.392;9.758;2023-03-05T03:32:02;100896.06;;;4.18;82.15
60465;BME280;46314;52.392;9.758;2023-03-05T03:34:29;100896.44;;;4.44;80.09
60465;BME280;46314;52.392;9.758;2023-03-05T03:36:55;100896.22;;;4.72;78.73
60465;BME280;46314;52.392;9.758;2023-03-05T03:39:22;100887.25;;;3.77;82.34
60465;BME280;46314;52.392;9.758;2023-03-05T03:41:50;100889.69;;;3.95;84.32
60465;BME280;46314;52.392;9.758;2023-03-05T03:44:18;100884.41;;;4.28;82.83
60465;BME280;46314;52.392;9.758;2023-03-05T03:46:46;100884.16;;;4.29;81.00
60465;BME280;46314;52.392;9.758;2023-03-05T03:49:16;100883.56;;;4.27;81.17
60465;BME280;46314;52.392;9.758;2023-03-05T03:51:42;100883.00;;;4.47;81.61
60465;BME280;46314;52.392;9.758;2023-03-05T03:54:09;100884.47;;;4.33;81.55
60465;BME280;46314;52.392;9.758;2023-03-05T03:56:35;100882.19;;;4.47;81.00
60465;BME280;46314;52.392;9.758;2023-03-05T03:59:02;100878.22;;;4.60;79.69
60465;BME280;46314;52.392;9.758;2023-03-05T04:01:28;100877.44;;;4.64;79.45
60465;BME280;46314;52.392;9.758;2023-03-05T04:03:55;100868.13;;;3.82;81.30
60465;BME280;46314;52.392;9.758;2023-03-05T04:06:23;100869.44;;;4.18;82.66
60465;BME280;46314;52.392;9.758;2023-03-05T04:08:49;100873.41;;;4.50;80.33
60465;BME280;46314;52.392;9.758;2023-03-05T04:11:16;100868.47;;;4.47;80.18
60465;BME280;46314;52.392;9.758;2023-03-05T04:13:42;100863.59;;;4.32;80.62
60465;BME280;46314;52.392;9.758;2023-03-05T04:16:08;100857.44;;;4.25;80.81
60465;BME280;46314;52.392;9.758;2023-03-05T04:18:35;100856.75;;;3.95;82.53
60465;BME280;46314;52.392;9.758;2023-03-05T04:21:02;100856.94;;;4.50;80.38
60465;BME280;46314;52.392;9.758;2023-03-05T04:23:29;100856.31;;;4.65;78.74
60465;BME280;46314;52.392;9.758;2023-03-05T04:25:56;100847.59;;;4.07;80.91
60465;BME280;46314;52.392;9.758;2023-03-05T04:28:23;100855.25;;;4.71;78.86
60465;BME280;46314;52.392;9.758;2023-03-05T04:30:49;100846.81;;;4.78;79.00
60465;BME280;46314;52.392;9.758;2023-03-05T04:33:16;100849.13;;;4.64;78.63
60465;BME280;46314;52.392;9.758;2023-03-05T04:35:42;100842.50;;;4.87;78.42
60465;BME280;46314;52.392;9.758;2023-03-05T04:38:09;100841.00;;;4.96;76.96
60465;BME280;46314;52.392;9.758;2023-03-05T04:40:37;100832.34;;;4.60;77.44
60465;BME280;46314;52.392;9.758;2023-03-05T04:43:04;100827.22;;;3.81;81.04
60465;BME280;46314;52.392;9.758;2023-03-05T04:45:31;100832.03;;;4.57;79.00
60465;BME280;46314;52.392;9.758;2023-03-05T04:47:57;100837.25;;;4.58;78.78
60465;BME280;46314;52.392;9.758;2023-03-05T04:50:24;100835.66;;;4.62;78.49
60465;BME280;46314;52.392;9.758;2023-03-05T04:52:51;100823.72;;;4.51;78.27
60465;BME280;46314;52.392;9.758;2023-03-05T04:55:17;100823.84;;;4.62;79.25
60465;BME280;46314;52.392;9.758;2023-03-05T04:57:45;100826.78;;;4.55;77.80
60465;BME280;46314;52.392;9.758;2023-03-05T05:00:14;100821.97;;;4.40;78.10
60465;BME280;46314;52.392;9.758;2023-03-05T05:02:42;100828.34;;;4.46;78.27
60465;BME280;46314;52.392;9.758;2023-03-05T05:05:11;100820.78;;;4.58;78.54
60465;BME280;46314;52.392;9.758;2023-03-05T05:07:39;100815.22;;;4.53;78.50
60465;BME280;46314;52.392;9.758;2023-03-05T05:10:06;100822.03;;;4.45;78.37
60465;BME280;46314;52.392;9.758;2023-03-05T05:12:33;100809.38;;;4.44;78.60
60465;BME280;46314;52.392;9.758;2023-03-05T05:15:02;100818.25;;;4.29;79.96
60465;BME280;46314;52.392;9.758;2023-03-05T05:17:29;100813.00;;;4.50;78.98
60465;BME280;46314;52.392;9.758;2023-03-05T05:19:56;100814.41;;;4.30;79.11
60465;BME280;46314;52.392;9.758;2023-03-05T05:22:22;100806.53;;;4.61;78.57
60465;BME280;46314;52.392;9.758;2023-03-05T05:24:49;100817.78;;;4.87;77.90
60465;BME280;46314;52.392;9.758;2023-03-05T05:27:15;100810.06;;;4.57;77.96
60465;BME280;46314;52.392;9.758;2023-03-05T05:29:42;100812.09;;;4.00;80.14
60465;BME280;46314;52.392;9.758;2023-03-05T05:32:09;100802.78;;;4.45;79.09
60465;BME280;46314;52.392;9.758;2023-03-05T05:34:36;100799.47;;;4.21;79.31
60465;BME280;46314;52.392;9.758;2023-03-05T05:37:02;100800.69;;;4.30;79.44
60465;BME280;46314;52.392;9.758;2023-03-05T05:39:28;100800.56;;;3.98;81.00
60465;BME280;46314;52.392;9.758;2023-03-05T05:41:55;100795.13;;;4.25;79.13
60465;BME280;46314;52.392;9.758;2023-03-05T05:44:21;100799.34;;;4.33;79.17
60465;BME280;46314;52.392;9.758;2023-03-05T05:46:47;100805.88;;;4.05;79.53
60465;BME280;46314;52.392;9.758;2023-03-05T05:49:15;100799.03;;;4.29;79.20
60465;BME280;46314;52.392;9.758;2023-03-05T05:51:42;100793.72;;;4.01;80.44
60465;BME280;46314;52.392;9.758;2023-03-05T05:54:10;100792.00;;;4.39;79.24
60465;BME280;46314;52.392;9.758;2023-03-05T05:56:37;100792.78;;;4.12;79.94
60465;BME280;46314;52.392;9.758;2023-03-05T05:59:04;100783.63;;;4.28;79.45
60465;BME280;46314;52.392;9.758;2023-03-05T06:01:31;100781.97;;;4.27;79.33
60465;BME280;46314;52.392;9.758;2023-03-05T06:03:58;100785.06;;;4.58;78.78
60465;BME280;46314;52.392;9.758;2023-03-05T06:06:26;100788.81;;;4.47;78.87
60465;BME280;46314;52.392;9.758;2023-03-05T06:08:54;100788.53;;;4.48;79.12
60465;BME280;46314;52.392;9.758;2023-03-05T06:11:20;100794.09;;;3.87;81.06
60465;BME280;46314;52.392;9.758;2023-03-05T06:13:47;100786.97;;;4.30;79.53
60465;BME280;46314;52.392;9.758;2023-03-05T06:16:16;100787.19;;;4.51;79.43
60465;BME280;46314;52.392;9.758;2023-03-05T06:18:43;100789.38;;;4.49;79.43
60465;BME280;46314;52.392;9.758;2023-03-05T06:21:11;100792.91;;;4.00;81.37
60465;BME280;46314;52.392;9.758;2023-03-05T06:23:39;100800.44;;;4.54;78.48
60465;BME280;46314;52.392;9.758;2023-03-05T06:26:07;100789.19;;;4.33;79.13
60465;BME280;46314;52.392;9.758;2023-03-05T06:28:34;100800.13;;;4.55;78.57
60465;BME280;46314;52.392;9.758;2023-03-05T06:31:01;100786.56;;;4.44;78.84
60465;BME280;46314;52.392;9.758;2023-03-05T06:33:29;100789.88;;;4.68;77.92
60465;BME280;46314;52.392;9.758;2023-03-05T06:35:55;100793.25;;;4.53;79.05
60465;BME280;46314;52.392;9.758;2023-03-05T06:38:22;100799.28;;;4.77;78.23
60465;BME280;46314;52.392;9.758;2023-03-05T06:40:51;100786.88;;;5.02;76.57
60465;BME280;46314;52.392;9.758;2023-03-05T06:43:17;100784.75;;;5.09;76.68
60465;BME280;46314;52.392;9.758;2023-03-05T06:45:44;100792.78;;;5.16;76.34
60465;BME280;46314;52.392;9.758;2023-03-05T06:48:10;100784.69;;;4.71;77.81
60465;BME280;46314;52.392;9.758;2023-03-05T06:50:37;100785.22;;;5.01;76.98
60465;BME280;46314;52.392;9.758;2023-03-05T06:53:03;100781.16;;;5.08;76.24
60465;BME280;46314;52.392;9.758;2023-03-05T06:55:30;100778.84;;;4.95;76.67
60465;BME280;46314;52.392;9.758;2023-03-05T06:57:57;100775.94;;;5.07;75.95
60465;BME280;46314;52.392;9.758;2023-03-05T07:00:24;100776.88;;;5.23;75.57
60465;BME280;46314;52.392;9.758;2023-03-05T07:02:51;100779.03;;;5.16;75.88
60465;BME280;46314;52.392;9.758;2023-03-05T07:05:17;100777.75;;;4.96;76.97
60465;BME280;46314;52.392;9.758;2023-03-05T07:07:43;100778.13;;;5.05;76.02
60465;BME280;46314;52.392;9.758;2023-03-05T07:10:10;100767.91;;;5.00;75.47
60465;BME280;46314;52.392;9.758;2023-03-05T07:12:37;100776.69;;;5.02;75.31
60465;BME280;46314;52.392;9.758;2023-03-05T07:15:06;100777.16;;;5.21;75.16
60465;BME280;46314;52.392;9.758;2023-03-05T07:17:33;100771.75;;;4.72;77.61
60465;BME280;46314;52.392;9.758;2023-03-05T07:19:59;100769.97;;;5.20;75.42
60465;BME280;46314;52.392;9.758;2023-03-05T07:22:26;100769.72;;;5.22;75.22
60465;BME280;46314;52.392;9.758;2023-03-05T07:24:52;100763.72;;;4.92;75.42
60465;BME280;46314;52.392;9.758;2023-03-05T07:27:19;100766.53;;;5.03;75.68
60465;BME280;46314;52.392;9.758;2023-03-05T07:29:45;100760.09;;;5.19;75.07
60465;BME280;46314;52.392;9.758;2023-03-05T07:32:13;100763.22;;;5.33;74.76
60465;BME280;46314;52.392;9.758;2023-03-05T07:34:39;100755.50;;;5.30;74.33
60465;BME280;46314;52.392;9.758;2023-03-05T07:37:06;100763.56;;;5.09;74.95
60465;BME280;46314;52.392;9.758;2023-03-05T07:39:32;100756.53;;;5.24;74.20
60465;BME280;46314;52.392;9.758;2023-03-05T07:41:58;100755.81;;;5.39;73.96
60465;BME280;46314;52.392;9.758;2023-03-05T07:44:25;100754.19;;;5.05;74.81
60465;BME280;46314;52.392;9.758;2023-03-05T07:46:51;100754.81;;;5.12;75.29
60465;BME280;46314;52.392;9.758;2023-03-05T07:49:19;100760.75;;;4.45;77.34
60465;BME280;46314;52.392;9.758;2023-03-05T07:51:45;100756.03;;;5.32;74.77
60465;BME280;46314;52.392;9.758;2023-03-05T07:54:12;100755.78;;;4.96;74.89
60465;BME280;46314;52.392;9.758;2023-03-05T07:56:38;100755.53;;;4.70;77.16
60465;BME280;46314;52.392;9.758;2023-03-05T07:59:06;100762.63;;;5.31;75.13
60465;BME280;46314;52.392;9.758;2023-03-05T08:01:34;100759.09;;;4.98;75.54
60465;BME280;46314;52.392;9.758;2023-03-05T08:04:02;100751.53;;;4.83;76.29
60465;BME280;46314;52.392;9.758;2023-03-05T08:06:30;100749.06;;;4.87;75.03
60465;BME280;46314;52.392;9.758;2023-03-05T08:08:57;100760.78;;;5.04;74.65
60465;BME280;46314;52.392;9.758;2023-03-05T08:11:24;100745.06;;;4.67;75.74
60465;BME280;46314;52.392;9.758;2023-03-05T08:13:51;100753.41;;;4.78;75.51
60465;BME280;46314;52.392;9.758;2023-03-05T08:16:18;100745.25;;;5.25;74.81
60465;BME280;46314;52.392;9.758;2023-03-05T08:18:46;100744.03;;;5.06;74.37
60465;BME280;46314;52.392;9.758;2023-03-05T08:21:17;100747.03;;;5.04;74.56
60465;BME280;46314;52.392;9.758;2023-03-05T08:23:45;100747.53;;;4.96;74.59
60465;BME280;46314;52.392;9.758;2023-03-05T08:26:14;100750.09;;;4.76;76.15
60465;BME280;46314;52.392;9.758;2023-03-05T08:28:40;100743.59;;;5.19;74.25
60465;BME280;46314;52.392;9.758;2023-03-05T08:31:08;100746.00;;;5.53;71.29
60465;BME280;46314;52.392;9.758;2023-03-05T08:33:34;100731.09;;;5.92;70.39
60465;BME280;46314;52.392;9.758;2023-03-05T08:36:01;100731.56;;;5.30;69.58
60465;BME280;46314;52.392;9.758;2023-03-05T08:38:27;100741.06;;;4.53;74.08
60465;BME280;46314;52.392;9.758;2023-03-05T08:40:55;100739.63;;;5.05;71.78
60465;BME280;46314;52.392;9.758;2023-03-05T08:43:21;100738.88;;;5.57;69.04
60465;BME280;46314;52.392;9.758;2023-03-05T08:45:48;100740.94;;;5.77;68.61
60465;BME280;46314;52.392;9.758;2023-03-05T08:48:14;100747.41;;;5.61;69.39
60465;BME280;46314;52.392;9.758;2023-03-05T08:50:40;100740.94;;;5.35;69.96
60465;BME280;46314;52.392;9.758;2023-03-05T08:53:07;100735.13;;;5.26;69.43
60465;BME280;46314;52.392;9.758;2023-03-05T08:55:33;100736.22;;;5.73;70.83
60465;BME280;46314;52.392;9.758;2023-03-05T08:58:01;100730.25;;;5.86;69.44
60465;BME280;46314;52.392;9.758;2023-03-05T09:00:28;100736.97;;;6.05;69.49
60465;BME280;46314;52.392;9.758;2023-03-05T09:02:54;100739.44;;;5.54;71.62
60465;BME280;46314;52.392;9.758;2023-03-05T09:05:20;100740.34;;;5.70;71.56
60465;BME280;46314;52.392;9.758;2023-03-05T09:07:47;100739.91;;;5.94;70.38
60465;BME280;46314;52.392;9.758;2023-03-05T09:10:14;100740.66;;;6.37;69.29
60465;BME280;46314;52.392;9.758;2023-03-05T09:12:40;100742.19;;;6.07;70.04
60465;BME280;46314;52.392;9.758;2023-03-05T09:15:10;100730.47;;;5.79;71.26
60465;BME280;46314;52.392;9.758;2023-03-05T09:17:37;100732.59;;;6.20;70.02
60465;BME280;46314;52.392;9.758;2023-03-05T09:20:05;100729.94;;;5.82;69.91
60465;BME280;46314;52.392;9.758;2023-03-05T09:22:32;100731.19;;;6.12;71.36
60465;BME280;46314;52.392;9.758;2023-03-05T09:24:58;100730.31;;;6.01;70.66
60465;BME280;46314;52.392;9.758;2023-03-05T09:27:24;100726.66;;;5.91;72.99
60465;BME280;46314;52.392;9.758;2023-03-05T09:29:51;100728.78;;;6.36;70.38
60465;BME280;46314;52.392;9.758;2023-03-05T09:32:19;100731.19;;;6.17;71.49
60465;BME280;46314;52.392;9.758;2023-03-05T09:34:45;100724.66;;;6.39;71.34
60465;BME280;46314;52.392;9.758;2023-03-05T09:37:11;100722.53;;;6.92;69.64
60465;BME280;46314;52.392;9.758;2023-03-05T09:39:38;100712.53;;;6.45;70.98
60465;BME280;46314;52.392;9.758;2023-03-05T09:42:20;100705.97;;;6.56;68.98
60465;BME280;46314;52.392;9.758;2023-03-05T09:45:02;100703.75;;;6.89;64.80
60465;BME280;46314;52.392;9.758;2023-03-05T09:47:44;100703.50;;;6.65;66.58
60465;BME280;46314;52.392;9.758;2023-03-05T09:50:16;100702.66;;;7.11;63.63
60465;BME280;46314;52.392;9.758;2023-03-05T09:52:49;100704.31;;;6.76;64.52
60465;BME280;46314;52.392;9.758;2023-03-05T09:55:22;100707.63;;;7.09;64.25
60465;BME280;46314;52.392;9.758;2023-03-05T09:57:52;100707.59;;;7.19;63.06
60465;BME280;46314;52.392;9.758;2023-03-05T10:00:35;100702.13;;;6.78;63.31
60465;BME280;46314;52.392;9.758;2023-03-05T10:03:12;100700.47;;;6.92;62.13
60465;BME280;46314;52.392;9.758;2023-03-05T10:05:50;100698.53;;;6.72;63.78
60465;BME280;46314;52.392;9.758;2023-03-05T10:08:21;100703.75;;;7.30;61.50
60465;BME280;46314;52.392;9.758;2023-03-05T10:10:50;100700.19;;;7.04;61.24
60465;BME280;46314;52.392;9.758;2023-03-05T10:13:21;100700.94;;;7.51;60.18
60465;BME280;46314;52.392;9.758;2023-03-05T10:15:54;100697.16;;;7.16;60.94
60465;BME280;46314;52.392;9.758;2023-03-05T10:18:29;100697.00;;;7.77;58.99
60465;BME280;46314;52.392;9.758;2023-03-05T10:20:59;100683.06;;;7.23;61.04
60465;BME280;46314;52.392;9.758;2023-03-05T10:23:47;100688.41;;;7.79;58.66
60465;BME280;46314;52.392;9.758;2023-03-05T10:26:26;100688.53;;;7.43;59.95
60465;BME280;46314;52.392;9.758;2023-03-05T10:29:06;100685.25;;;7.36;59.56
60465;BME280;46314;52.392;9.758;2023-03-05T10:32:02;100674.41;;;7.65;59.68
60465;BME280;46314;52.392;9.758;2023-03-05T10:37:42;100665.66;;;7.32;59.32
60465;BME280;46314;52.392;9.758;2023-03-05T10:40:19;100668.38;;;7.53;59.02
60465;BME280;46314;52.392;9.758;2023-03-05T10:42:53;100660.25;;;7.82;58.53
60465;BME280;46314;52.392;9.758;2023-03-05T10:45:24;100656.75;;;7.56;57.64
60465;BME280;46314;52.392;9.758;2023-03-05T10:47:55;100660.91;;;7.53;57.82
60465;BME280;46314;52.392;9.758;2023-03-05T10:50:27;100657.19;;;7.84;56.63
60465;BME280;46314;52.392;9.758;2023-03-05T10:53:05;100653.97;;;8.16;55.56
60465;BME280;46314;52.392;9.758;2023-03-05T10:55:32;100643.13;;;8.30;54.03
60465;BME280;46314;52.392;9.758;2023-03-05T10:58:00;100643.78;;;8.56;53.22
60465;BME280;46314;52.392;9.758;2023-03-05T11:00:27;100646.59;;;8.06;53.87
60465;BME280;46314;52.392;9.758;2023-03-05T11:02:57;100642.44;;;8.53;52.14
60465;BME280;46314;52.392;9.758;2023-03-05T11:05:43;100642.06;;;8.26;52.03
60465;BME280;46314;52.392;9.758;2023-03-05T11:08:28;100651.09;;;8.37;51.98
60465;BME280;46314;52.392;9.758;2023-03-05T11:11:11;100636.16;;;7.93;52.91
60465;BME280;46314;52.392;9.758;2023-03-05T11:13:43;100621.50;;;7.43;53.59
60465;BME280;46314;52.392;9.758;2023-03-05T11:16:16;100624.22;;;7.53;54.47
60465;BME280;46314;52.392;9.758;2023-03-05T11:18:46;100616.59;;;7.09;55.99
60465;BME280;46314;52.392;9.758;2023-03-05T11:21:20;100614.44;;;6.70;57.11
60465;BME280;46314;52.392;9.758;2023-03-05T11:24:03;100613.84;;;7.09;57.89
60465;BME280;46314;52.392;9.758;2023-03-05T11:26:30;100611.81;;;8.00;56.11
60465;BME280;46314;52.392;9.758;2023-03-05T11:28:59;100601.63;;;7.95;55.82
60465;BME280;46314;52.392;9.758;2023-03-05T11:31:28;100597.84;;;7.16;56.73
60465;BME280;46314;52.392;9.758;2023-03-05T11:33:59;100601.31;;;7.47;57.18
60465;BME280;46314;52.392;9.758;2023-03-05T11:36:29;100605.88;;;6.04;62.48
60465;BME280;46314;52.392;9.758;2023-03-05T11:38:58;100605.28;;;7.15;59.31
60465;BME280;46314;52.392;9.758;2023-03-05T11:41:32;100590.91;;;7.34;57.92
60465;BME280;46314;52.392;9.758;2023-03-05T11:43:59;100595.72;;;6.36;59.67
60465;BME280;46314;52.392;9.758;2023-03-05T11:46:27;100587.44;;;6.10;60.84
60465;BME280;46314;52.392;9.758;2023-03-05T11:48:55;100591.03;;;6.26;60.78
60465;BME280;46314;52.392;9.758;2023-03-05T11:51:25;100586.63;;;6.61;60.59
60465;BME280;46314;52.392;9.758;2023-03-05T11:53:58;100596.44;;;7.24;59.45
60465;BME280;46314;52.392;9.758;2023-03-05T11:56:30;100592.34;;;7.11;60.50
60465;BME280;46314;52.392;9.758;2023-03-05T11:59:01;100583.75;;;7.17;60.69
60465;BME280;46314;52.392;9.758;2023-03-05T12:01:30;100582.50;;;6.79;60.80
60465;BME280;46314;52.392;9.758;2023-03-05T12:03:57;100575.28;;;7.69;59.21
60465;BME280;46314;52.392;9.758;2023-03-05T12:06:28;100578.44;;;7.36;59.31
60465;BME280;46314;52.392;9.758;2023-03-05T12:08:59;100570.66;;;7.54;59.08
60465;BME280;46314;52.392;9.758;2023-03-05T12:11:28;100564.81;;;6.90;58.79
60465;BME280;46314;52.392;9.758;2023-03-05T12:13:56;100562.94;;;6.50;60.84
60465;BME280;46314;52.392;9.758;2023-03-05T12:16:27;100559.09;;;6.30;62.04
60465;BME280;46314;52.392;9.758;2023-03-05T12:19:03;100559.28;;;5.93;63.92
60465;BME280;46314;52.392;9.758;2023-03-05T12:21:36;100554.94;;;6.53;62.58
60465;BME280;46314;52.392;9.758;2023-03-05T12:24:33;100560.19;;;6.65;62.01
60465;BME280;46314;52.392;9.758;2023-03-05T12:27:15;100554.94;;;6.79;62.40
60465;BME280;46314;52.392;9.758;2023-03-05T12:29:49;100550.13;;;7.10;60.57
60465;BME280;46314;52.392;9.758;2023-03-05T12:35:01;100542.97;;;8.09;58.91
60465;BME280;46314;52.392;9.758;2023-03-05T12:37:56;100531.06;;;8.13;57.50
60465;BME280;46314;52.392;9.758;2023-03-05T12:40:25;100511.28;;;8.01;59.19
60465;BME280;46314;52.392;9.758;2023-03-05T12:42:54;100517.84;;;7.71;58.98
60465;BME280;46314;52.392;9.758;2023-03-05T12:45:40;100506.88;;;7.61;58.16
60465;BME280;46314;52.392;9.758;2023-03-05T12:48:42;100499.66;;;8.33;56.18
60465;BME280;46314;52.392;9.758;2023-03-05T12:51:14;100503.22;;;8.44;56.23
60465;BME280;46314;52.392;9.758;2023-03-05T12:53:49;100497.88;;;8.77;55.29
60465;BME280;46314;52.392;9.758;2023-03-05T12:56:20;100494.03;;;8.78;55.23
60465;BME280;46314;52.392;9.758;2023-03-05T12:58:50;100497.38;;;8.46;55.29
60465;BME280;46314;52.392;9.758;2023-03-05T13:01:33;100495.06;;;7.50;56.75
60465;BME280;46314;52.392;9.758;2023-03-05T13:04:03;100494.72;;;7.62;58.25
60465;BME280;46314;52.392;9.758;2023-03-05T13:06:32;100495.31;;;7.04;60.11
60465;BME280;46314;52.392;9.758;2023-03-05T13:09:01;100487.78;;;7.64;60.09
60465;BME280;46314;52.392;9.758;2023-03-05T13:11:31;100482.13;;;7.40;60.00
60465;BME280;46314;52.392;9.758;2023-03-05T13:14:00;100474.59;;;7.95;58.08